Time;durP1;ratioP1;P1;durP2;ratioP2;P2;SDS_P1;SDS_P2;PMS_P1;PMS_P2;Temp;Humidity;BMP_temperature;BMP_pressure;BME280_temperature;BME280_humidity;BME280_pressure;Samples;Min_cycle;Max_cycle;Signal;HPM_P1;HPM_P2
2022/06/28 00:00:43;;;;;;;1.70;1.53;;;;;24.90;100994.00;;;;2070151;28;20222;-50
2022/06/28 00:01:43;;;;;;;1.40;1.10;;;;;24.90;100990.00;;;;2074450;28;20303;-50
2022/06/28 00:02:44;;;;;;;1.60;1.50;;;;;24.90;100985.00;;;;2076527;28;20357;-50
2022/06/28 00:03:44;;;;;;;3.20;1.47;;;;;24.90;100986.00;;;;2078012;28;20301;-50
2022/06/28 00:04:44;;;;;;;2.90;1.97;;;;;24.90;100986.00;;;;2075920;28;20210;-51
2022/06/28 00:05:45;;;;;;;2.07;1.70;;;;;24.90;100983.00;;;;2070405;28;20581;-52
2022/06/28 00:06:45;;;;;;;1.70;1.60;;;;;24.90;100975.00;;;;2070237;28;20653;-50
2022/06/28 00:07:46;;;;;;;1.73;1.43;;;;;24.90;100976.00;;;;2069132;28;20577;-50
2022/06/28 00:08:46;;;;;;;1.83;1.67;;;;;24.90;100974.00;;;;2070074;28;20729;-50
2022/06/28 00:09:47;;;;;;;2.33;1.50;;;;;24.90;100975.00;;;;2070529;28;20217;-51
2022/06/28 00:10:47;;;;;;;2.10;1.77;;;;;24.90;100970.00;;;;2070455;28;20217;-51
2022/06/28 00:11:48;;;;;;;1.63;1.50;;;;;24.90;100969.00;;;;2070364;28;20268;-51
2022/06/28 00:12:48;;;;;;;2.45;1.60;;;;;24.90;100969.00;;;;2069034;28;20218;-50
2022/06/28 00:13:49;;;;;;;1.57;1.40;;;;;24.90;100965.00;;;;2070434;28;20237;-50
2022/06/28 00:16:10;;;;;;;2.25;1.75;;;;;24.90;100973.00;;;;2070414;28;20234;-50
2022/06/28 00:17:11;;;;;;;1.25;1.15;;;;;24.90;100973.00;;;;2070275;28;20257;-50
2022/06/28 00:18:11;;;;;;;1.70;1.20;;;;;24.90;100971.00;;;;2069494;28;20649;-50
2022/06/28 00:19:11;;;;;;;1.83;1.47;;;;;24.90;100966.00;;;;2070351;28;20576;-50
2022/06/28 00:20:12;;;;;;;2.13;1.47;;;;;24.90;100965.00;;;;2074259;28;20620;-50
2022/06/28 00:21:12;;;;;;;1.73;1.37;;;;;24.90;100966.00;;;;2078377;28;20648;-56
2022/06/28 00:22:12;;;;;;;1.50;1.40;;;;;24.90;100975.00;;;;2078760;28;20214;-53
2022/06/28 00:23:13;;;;;;;1.50;1.30;;;;;24.90;100966.00;;;;2078275;28;20210;-49
2022/06/28 00:24:13;;;;;;;3.80;1.67;;;;;24.90;100972.00;;;;2078153;28;20213;-50
2022/06/28 00:25:14;;;;;;;2.80;1.60;;;;;24.90;100969.00;;;;2078634;28;20232;-52
2022/06/28 00:26:14;;;;;;;2.37;1.50;;;;;24.80;100984.00;;;;2078536;28;20221;-52
2022/06/28 00:27:14;;;;;;;1.57;1.40;;;;;24.90;100979.00;;;;2077471;28;20640;-50
2022/06/28 00:28:15;;;;;;;1.83;1.53;;;;;24.90;100966.00;;;;2077178;28;20589;-50
2022/06/28 00:29:15;;;;;;;1.50;1.27;;;;;24.90;100969.00;;;;2077971;28;20249;-50
2022/06/28 00:30:15;;;;;;;1.50;1.30;;;;;24.80;100967.00;;;;2078499;28;20210;-50
2022/06/28 00:31:16;;;;;;;1.77;1.40;;;;;24.80;100976.00;;;;2078304;28;20232;-50
2022/06/28 00:32:16;;;;;;;1.27;1.17;;;;;24.80;100884.00;;;;2078634;28;20209;-50
2022/06/28 00:33:17;;;;;;;1.50;1.17;;;;;24.80;100970.00;;;;2078537;28;20573;-51
2022/06/28 00:34:17;;;;;;;1.67;1.30;;;;;24.80;100967.00;;;;2078194;28;20618;-50
2022/06/28 00:35:17;;;;;;;1.40;1.30;;;;;24.80;100972.00;;;;2078420;28;20251;-49
2022/06/28 00:36:18;;;;;;;1.47;1.37;;;;;24.80;100972.00;;;;2075489;28;20221;-50
2022/06/28 00:37:18;;;;;;;1.60;1.33;;;;;24.90;100975.00;;;;2069489;28;20215;-50
2022/06/28 00:38:18;;;;;;;1.53;1.43;;;;;24.80;100967.00;;;;2070171;28;20249;-50
2022/06/28 00:39:19;;;;;;;2.07;1.43;;;;;24.80;100967.00;;;;2070233;28;20297;-50
2022/06/28 00:40:19;;;;;;;1.57;1.40;;;;;24.80;100971.00;;;;2069363;28;20206;-49
2022/06/28 00:41:19;;;;;;;1.97;1.30;;;;;24.80;100969.00;;;;2071958;28;20252;-50
2022/06/28 00:42:20;;;;;;;1.90;1.20;;;;;24.80;100968.00;;;;2072073;28;20218;-50
2022/06/28 00:43:21;;;;;;;1.70;1.10;;;;;24.80;100971.00;;;;2063315;28;20892;-50
2022/06/28 00:44:21;;;;;;;1.77;1.50;;;;;24.80;100982.00;;;;2063185;28;20269;-50
2022/06/28 00:45:22;;;;;;;1.30;1.20;;;;;24.80;100977.00;;;;2071491;28;20970;-50
2022/06/28 00:46:22;;;;;;;1.83;1.30;;;;;24.80;100974.00;;;;2062966;28;20888;-50
2022/06/28 00:47:22;;;;;;;2.10;1.30;;;;;24.80;100985.00;;;;2070540;28;20214;-50
2022/06/28 00:48:23;;;;;;;2.27;1.60;;;;;24.80;100981.00;;;;2070956;28;20228;-50
2022/06/28 00:49:23;;;;;;;1.37;1.27;;;;;24.80;100972.00;;;;2062938;28;20598;-50
2022/06/28 00:50:24;;;;;;;2.33;1.30;;;;;24.80;100981.00;;;;2071046;28;20718;-50
2022/06/28 00:51:24;;;;;;;2.10;1.70;;;;;24.80;100979.00;;;;2063103;28;20758;-49
2022/06/28 00:52:25;;;;;;;1.30;1.20;;;;;24.80;100977.00;;;;2063274;28;20229;-50
2022/06/28 00:53:25;;;;;;;1.70;1.30;;;;;24.80;100983.00;;;;2071995;28;20594;-50
2022/06/28 00:54:25;;;;;;;2.20;1.13;;;;;24.80;100979.00;;;;2071725;28;20206;-50
2022/06/28 00:55:26;;;;;;;1.33;1.20;;;;;24.80;100979.00;;;;2070737;28;20264;-49
2022/06/28 00:56:26;;;;;;;2.20;1.50;;;;;24.80;100973.00;;;;2071925;28;20210;-50
2022/06/28 00:57:26;;;;;;;1.97;1.30;;;;;24.80;100977.00;;;;2071185;28;20214;-50
2022/06/28 00:58:27;;;;;;;1.50;1.10;;;;;24.80;100978.00;;;;2079388;28;20631;-50
2022/06/28 00:59:27;;;;;;;1.40;1.30;;;;;24.80;100975.00;;;;2080040;28;20846;-50
2022/06/28 01:00:29;;;;;;;4.50;1.67;;;;;24.80;100981.00;;;;2079452;28;20633;-50
2022/06/28 01:01:30;;;;;;;2.45;1.23;;;;;24.80;100972.00;;;;2080187;28;20213;-50
2022/06/28 01:02:31;;;;;;;1.95;1.30;;;;;24.80;100976.00;;;;2079765;28;20264;-49
2022/06/28 01:03:31;;;;;;;2.03;1.40;;;;;24.80;100977.00;;;;2079801;28;20776;-50
2022/06/28 01:04:31;;;;;;;1.30;1.10;;;;;24.80;100976.00;;;;2079349;28;20891;-50
2022/06/28 01:05:32;;;;;;;1.63;1.17;;;;;24.80;100972.00;;;;2079359;28;20767;-50
2022/06/28 01:06:32;;;;;;;1.73;1.30;;;;;24.80;100975.00;;;;2079624;28;20685;-50
2022/06/28 01:07:32;;;;;;;2.00;1.27;;;;;24.80;100971.00;;;;2079207;28;21249;-50
2022/06/28 01:08:33;;;;;;;1.50;1.30;;;;;24.80;100974.00;;;;2077396;28;20264;-50
2022/06/28 01:09:33;;;;;;;1.83;1.30;;;;;24.80;100985.00;;;;2071201;28;20226;-50
2022/06/28 01:10:34;;;;;;;1.30;1.17;;;;;24.80;100988.00;;;;2071899;28;20210;-50
2022/06/28 01:11:34;;;;;;;2.00;1.38;;;;;24.80;100982.00;;;;2071808;28;20298;-50
2022/06/28 01:12:35;;;;;;;1.63;1.33;;;;;24.80;100983.00;;;;2071724;28;20249;-50
2022/06/28 01:13:35;;;;;;;3.57;1.13;;;;;24.80;100985.00;;;;2071737;28;20237;-50
2022/06/28 01:14:36;;;;;;;1.70;1.13;;;;;24.80;100983.00;;;;2071594;28;20213;-50
2022/06/28 01:15:37;;;;;;;1.30;1.20;;;;;24.80;100978.00;;;;2071132;28;20210;-50
2022/06/28 01:16:37;;;;;;;1.90;1.50;;;;;24.80;100984.00;;;;2071030;28;20578;-50
2022/06/28 01:17:37;;;;;;;2.00;1.10;;;;;24.80;100985.00;;;;2070832;28;20460;-50
2022/06/28 01:18:38;;;;;;;1.23;1.13;;;;;24.80;100988.00;;;;2071874;28;20385;-50
2022/06/28 01:19:38;;;;;;;1.57;1.20;;;;;24.80;100982.00;;;;2070944;28;20300;-50
2022/06/28 01:20:42;;;;;;;1.60;1.13;;;;;24.80;100996.00;;;;2071040;28;20215;-50
2022/06/28 01:21:43;;;;;;;1.33;1.17;;;;;24.70;100989.00;;;;2071731;28;20213;-50
2022/06/28 01:22:43;;;;;;;2.50;1.30;;;;;24.80;100991.00;;;;2071762;28;20210;-50
2022/06/28 01:23:44;;;;;;;1.40;0.90;;;;;24.80;100997.00;;;;2071539;28;20305;-50
2022/06/28 01:24:45;;;;;;;2.40;1.20;;;;;24.80;100987.00;;;;2071786;28;20249;-50
2022/06/28 01:25:45;;;;;;;2.10;1.23;;;;;24.70;100986.00;;;;2071526;28;20264;-50
2022/06/28 01:26:46;;;;;;;2.90;1.20;;;;;24.70;101006.00;;;;2071763;28;20214;-50
2022/06/28 01:27:47;;;;;;;1.25;1.10;;;;;24.70;100997.00;;;;2070509;28;20620;-50
2022/06/28 01:28:48;;;;;;;1.43;1.10;;;;;24.70;100991.00;;;;2071012;28;20269;-50
2022/06/28 01:29:48;;;;;;;2.17;1.27;;;;;24.70;100990.00;;;;2070865;28;21013;-50
2022/06/28 01:30:49;;;;;;;1.60;1.00;;;;;24.70;100990.00;;;;2071699;28;20453;-50
2022/06/28 01:31:49;;;;;;;1.97;1.20;;;;;24.70;100996.00;;;;2071547;28;20751;-50
2022/06/28 01:32:50;;;;;;;1.80;1.50;;;;;24.70;100905.00;;;;2071089;28;20731;-50
2022/06/28 01:33:51;;;;;;;1.53;1.20;;;;;24.70;101003.00;;;;2053345;28;20321;-50
2022/06/28 01:34:51;;;;;;;1.73;1.27;;;;;24.70;100997.00;;;;2070774;28;20741;-50
2022/06/28 01:35:51;;;;;;;1.50;1.00;;;;;24.70;101005.00;;;;2081942;28;20504;-50
2022/06/28 01:36:52;;;;;;;1.53;1.20;;;;;24.70;100999.00;;;;2078898;28;20217;-50
2022/06/28 01:37:52;;;;;;;1.37;1.13;;;;;24.70;101006.00;;;;2069795;28;20217;-50
2022/06/28 01:38:52;;;;;;;1.27;1.17;;;;;24.70;100999.00;;;;2078496;28;20256;-50
2022/06/28 01:39:52;;;;;;;1.17;1.03;;;;;24.70;101000.00;;;;2085896;28;20221;-50
2022/06/28 01:40:53;;;;;;;1.00;0.90;;;;;24.70;100998.00;;;;2074828;28;20218;-50
2022/06/28 01:41:53;;;;;;;1.30;1.20;;;;;24.70;100996.00;;;;2062684;28;20285;-50
2022/06/28 01:42:53;;;;;;;2.40;1.03;;;;;24.70;101000.00;;;;2062837;28;20219;-49
2022/06/28 01:43:54;;;;;;;1.97;1.00;;;;;24.70;101004.00;;;;2070671;28;20218;-50
2022/06/28 01:44:55;;;;;;;1.67;1.20;;;;;24.70;101003.00;;;;2062681;28;21040;-50
2022/06/28 01:45:55;;;;;;;1.20;1.10;;;;;24.70;101005.00;;;;2070750;28;20663;-56
2022/06/28 01:46:56;;;;;;;1.50;1.00;;;;;24.70;101003.00;;;;2071050;28;20448;-53
2022/06/28 01:47:56;;;;;;;1.27;1.10;;;;;24.70;101007.00;;;;2073711;28;20228;-53
2022/06/28 01:48:56;;;;;;;1.40;1.20;;;;;24.70;101010.00;;;;2079537;28;20217;-52
2022/06/28 01:49:57;;;;;;;1.10;1.00;;;;;24.70;101013.00;;;;2079554;28;20275;-51
2022/06/28 01:50:57;;;;;;;1.30;1.10;;;;;24.70;101002.00;;;;2079270;28;20220;-51
2022/06/28 01:51:57;;;;;;;1.20;1.10;;;;;24.70;101016.00;;;;2079709;28;20210;-50
2022/06/28 01:52:58;;;;;;;1.37;1.23;;;;;24.70;100999.00;;;;2079625;28;20206;-51
2022/06/28 01:53:58;;;;;;;1.13;1.03;;;;;24.70;101019.00;;;;2079702;28;20657;-50
2022/06/28 01:54:58;;;;;;;1.70;1.13;;;;;24.70;101005.00;;;;2079472;28;20888;-50
2022/06/28 01:55:58;;;;;;;1.83;1.30;;;;;24.70;101009.00;;;;2079612;28;20240;-51
2022/06/28 01:57:00;;;;;;;1.63;1.10;;;;;24.70;101012.00;;;;2079478;28;20205;-50
2022/06/28 01:58:01;;;;;;;2.25;1.00;;;;;24.70;101009.00;;;;2078375;28;20209;-50
2022/06/28 01:59:02;;;;;;;1.37;1.00;;;;;24.70;101013.00;;;;2070495;28;20214;-50
2022/06/28 02:00:03;;;;;;;1.20;0.97;;;;;24.70;101016.00;;;;2070778;28;20457;-50
2022/06/28 02:01:04;;;;;;;1.40;1.30;;;;;24.70;101018.00;;;;2087063;28;20274;-50
2022/06/28 02:02:04;;;;;;;2.40;1.10;;;;;24.70;101029.00;;;;2079540;28;20247;-50
2022/06/28 02:03:04;;;;;;;1.90;1.10;;;;;24.70;101016.00;;;;2079559;28;20214;-50
2022/06/28 02:04:21;;;;;;;1.20;1.10;;;;;24.70;101022.00;;;;2079615;28;20270;-50
2022/06/28 02:05:22;;;;;;;2.38;1.38;;;;;24.70;101019.00;;;;2079078;28;20713;-50
2022/06/28 02:06:22;;;;;;;2.00;1.17;;;;;24.70;101017.00;;;;2079505;28;20241;-50
2022/06/28 02:07:22;;;;;;;1.10;1.00;;;;;24.70;101019.00;;;;2069840;28;20781;-50
2022/06/28 02:08:23;;;;;;;1.67;1.50;;;;;24.70;101024.00;;;;2070521;28;20485;-50
2022/06/28 02:09:23;;;;;;;1.30;0.90;;;;;24.70;101025.00;;;;2079368;28;20809;-50
2022/06/28 02:10:24;;;;;;;1.80;1.27;;;;;24.70;101023.00;;;;2079320;28;20590;-50
2022/06/28 02:11:24;;;;;;;1.40;1.10;;;;;24.70;101025.00;;;;2071980;28;20272;-50
2022/06/28 02:12:28;;;;;;;2.07;1.30;;;;;24.70;101020.00;;;;2071472;28;20233;-50
2022/06/28 02:13:28;;;;;;;1.17;1.00;;;;;24.70;101033.00;;;;2073924;28;20276;-50
2022/06/28 02:14:29;;;;;;;1.00;0.90;;;;;24.70;101030.00;;;;2079364;28;20287;-50
2022/06/28 02:15:29;;;;;;;1.50;1.20;;;;;24.70;101033.00;;;;2071710;28;20245;-54
2022/06/28 02:16:30;;;;;;;1.53;1.10;;;;;24.70;101036.00;;;;2072485;28;21163;-53
2022/06/28 02:17:30;;;;;;;1.73;1.20;;;;;24.70;101034.00;;;;2078648;28;20220;-53
2022/06/28 02:18:31;;;;;;;1.40;1.10;;;;;24.70;101038.00;;;;2079506;28;20218;-51
2022/06/28 02:19:31;;;;;;;1.90;1.07;;;;;24.70;101053.00;;;;2073349;28;20276;-50
2022/06/28 02:20:31;;;;;;;1.37;1.10;;;;;24.70;101032.00;;;;2086719;28;20216;-50
2022/06/28 02:21:39;;;;;;;1.50;1.20;;;;;24.70;101039.00;;;;2083201;28;20209;-50
2022/06/28 02:22:39;;;;;;;1.20;0.93;;;;;24.70;101044.00;;;;2079480;28;20697;-50
2022/06/28 02:23:40;;;;;;;1.40;1.00;;;;;24.70;101042.00;;;;2079177;28;20304;-51
2022/06/28 02:24:40;;;;;;;1.93;1.10;;;;;24.70;101045.00;;;;2079419;28;20229;-50
2022/06/28 02:25:40;;;;;;;1.57;1.20;;;;;24.70;101043.00;;;;2079321;28;20225;-50
2022/06/28 02:26:41;;;;;;;1.60;1.40;;;;;24.70;101042.00;;;;2079004;28;21120;-50
2022/06/28 02:27:42;;;;;;;1.57;1.10;;;;;24.70;101042.00;;;;2078662;28;20748;-50
2022/06/28 02:28:42;;;;;;;1.70;1.00;;;;;24.60;101039.00;;;;2079433;28;20604;-50
2022/06/28 02:29:43;;;;;;;1.60;1.33;;;;;24.60;101044.00;;;;2079091;28;20218;-50
2022/06/28 02:30:44;;;;;;;1.30;1.13;;;;;24.60;101048.00;;;;2079280;28;20214;-49
2022/06/28 02:31:45;;;;;;;1.70;1.10;;;;;24.60;101042.00;;;;2079549;28;20237;-50
2022/06/28 02:32:45;;;;;;;1.70;1.20;;;;;24.60;101047.00;;;;2079218;28;20849;-50
2022/06/28 02:33:45;;;;;;;4.30;1.40;;;;;24.60;101040.00;;;;2079215;28;20467;-50
2022/06/28 02:41:20;;;;;;;1.33;1.00;;;;;24.60;101042.00;;;;2079212;28;20296;-50
2022/06/28 02:42:20;;;;;;;1.17;0.90;;;;;24.60;101049.00;;;;2079074;28;20229;-50
2022/06/28 02:43:21;;;;;;;2.00;1.20;;;;;24.60;101042.00;;;;2079031;28;20237;-50
2022/06/28 02:44:21;;;;;;;1.10;0.80;;;;;24.60;101051.00;;;;2071066;28;20233;-50
2022/06/28 02:45:22;;;;;;;1.40;1.27;;;;;24.60;101069.00;;;;2071031;28;20218;-50
2022/06/28 02:46:23;;;;;;;1.20;0.98;;;;;24.60;101052.00;;;;2070968;28;20226;-50
2022/06/28 02:47:23;;;;;;;2.30;1.10;;;;;24.60;101050.00;;;;2070250;28;20221;-50
2022/06/28 02:48:23;;;;;;;1.63;1.13;;;;;24.60;101045.00;;;;2070916;28;20213;-50
2022/06/28 02:49:23;;;;;;;3.10;1.23;;;;;24.60;101050.00;;;;2070957;28;20323;-51
2022/06/28 02:50:24;;;;;;;1.40;1.10;;;;;24.60;101055.00;;;;2071113;28;20225;-50
2022/06/28 02:51:24;;;;;;;1.43;1.07;;;;;24.60;101051.00;;;;2071073;28;20226;-50
2022/06/28 02:52:25;;;;;;;1.73;1.00;;;;;24.60;101054.00;;;;2071091;28;20248;-50
2022/06/28 02:53:25;;;;;;;1.30;1.10;;;;;24.60;101048.00;;;;2071164;28;20549;-50
2022/06/28 02:54:25;;;;;;;3.20;1.03;;;;;24.60;101053.00;;;;2071049;28;20276;-50
2022/06/28 02:55:26;;;;;;;2.63;1.40;;;;;24.60;101044.00;;;;2070951;28;20214;-50
2022/06/28 02:56:26;;;;;;;1.60;1.30;;;;;24.60;101056.00;;;;2070559;28;20222;-50
2022/06/28 02:57:27;;;;;;;1.40;1.00;;;;;24.60;101047.00;;;;2071632;28;20464;-50
2022/06/28 02:58:27;;;;;;;1.60;0.93;;;;;24.60;101050.00;;;;2079028;28;20566;-51
2022/06/28 02:59:27;;;;;;;1.23;1.13;;;;;24.60;101047.00;;;;2078669;28;20584;-50
2022/06/28 03:00:28;;;;;;;1.40;1.20;;;;;24.60;101044.00;;;;2072731;28;20221;-50
2022/06/28 03:01:29;;;;;;;1.40;1.07;;;;;24.60;101046.00;;;;2079192;28;20281;-50
2022/06/28 03:02:29;;;;;;;1.10;0.97;;;;;24.60;101053.00;;;;2078890;28;20210;-50
2022/06/28 03:03:29;;;;;;;2.70;1.20;;;;;24.60;101058.00;;;;2078564;28;20213;-51
2022/06/28 03:04:30;;;;;;;1.90;1.00;;;;;24.60;101057.00;;;;2078888;28;20213;-50
2022/06/28 03:05:30;;;;;;;1.13;1.00;;;;;24.60;101047.00;;;;2079092;28;20219;-50
2022/06/28 03:06:30;;;;;;;1.83;1.30;;;;;24.60;101056.00;;;;2078918;28;20252;-50
2022/06/28 03:07:31;;;;;;;1.40;1.20;;;;;24.60;101052.00;;;;2078117;28;20213;-50
2022/06/28 03:08:31;;;;;;;1.80;1.07;;;;;24.60;101052.00;;;;2078724;28;20240;-51
2022/06/28 03:09:32;;;;;;;1.87;1.27;;;;;24.60;101061.00;;;;2078536;28;20229;-50
2022/06/28 03:10:32;;;;;;;2.10;1.30;;;;;24.60;101055.00;;;;2078698;28;20233;-50
2022/06/28 03:11:32;;;;;;;1.57;1.20;;;;;24.60;101063.00;;;;2079173;28;20217;-50
2022/06/28 03:12:33;;;;;;;1.40;1.23;;;;;24.60;101042.00;;;;2078758;28;20219;-50
2022/06/28 03:13:33;;;;;;;1.80;1.30;;;;;24.60;101076.00;;;;2078989;28;20632;-50
2022/06/28 03:14:34;;;;;;;1.70;1.00;;;;;24.60;100976.00;;;;2074922;28;20729;-50
2022/06/28 03:15:34;;;;;;;1.80;1.30;;;;;24.60;101063.00;;;;2078961;28;20742;-50
2022/06/28 03:16:34;;;;;;;1.57;1.30;;;;;24.60;100996.00;;;;2078586;28;20579;-50
2022/06/28 03:17:35;;;;;;;2.00;1.03;;;;;24.50;101063.00;;;;2067088;28;20578;-50
2022/06/28 03:18:35;;;;;;;1.67;1.20;;;;;24.60;101061.00;;;;2070951;28;20638;-50
2022/06/28 03:19:35;;;;;;;1.77;1.10;;;;;24.60;101064.00;;;;2070826;28;20639;-51
2022/06/28 03:20:36;;;;;;;1.90;1.30;;;;;24.60;100972.00;;;;2069475;28;20222;-49
2022/06/28 03:21:36;;;;;;;1.47;1.30;;;;;24.60;101068.00;;;;2070280;28;20639;-50
2022/06/28 03:22:36;;;;;;;1.87;1.20;;;;;24.60;101057.00;;;;2068649;28;20221;-50
2022/06/28 03:23:37;;;;;;;1.23;1.00;;;;;24.60;101064.00;;;;2070640;28;20267;-50
2022/06/28 03:24:37;;;;;;;1.30;1.20;;;;;24.60;101066.00;;;;2070936;28;20214;-50
2022/06/28 03:25:37;;;;;;;1.30;1.20;;;;;24.60;101061.00;;;;2070727;28;20309;-51
2022/06/28 03:26:38;;;;;;;1.97;1.10;;;;;24.60;101067.00;;;;2070461;28;20218;-50
2022/06/28 03:27:38;;;;;;;1.50;1.17;;;;;24.50;101077.00;;;;2070061;28;20225;-50
2022/06/28 03:28:38;;;;;;;2.17;1.10;;;;;24.50;101069.00;;;;2071060;28;20347;-50
2022/06/28 03:29:39;;;;;;;1.40;1.10;;;;;24.50;101071.00;;;;2070697;28;20237;-50
2022/06/28 03:30:39;;;;;;;1.37;1.10;;;;;24.50;101073.00;;;;2070556;28;20210;-51
2022/06/28 03:31:39;;;;;;;1.47;0.97;;;;;24.50;101081.00;;;;2070738;28;20232;-50
2022/06/28 03:32:40;;;;;;;2.03;1.00;;;;;24.50;101073.00;;;;2070990;28;20557;-50
2022/06/28 03:33:40;;;;;;;1.83;1.20;;;;;24.60;101082.00;;;;2070954;28;20657;-50
2022/06/28 03:34:40;;;;;;;1.50;1.10;;;;;24.50;101077.00;;;;2070437;28;20214;-50
2022/06/28 03:35:41;;;;;;;2.00;1.00;;;;;24.60;101081.00;;;;2070820;28;20214;-50
2022/06/28 03:36:41;;;;;;;1.30;1.20;;;;;24.50;101070.00;;;;2070770;28;20252;-50
2022/06/28 03:37:41;;;;;;;1.40;1.30;;;;;24.50;101087.00;;;;2069909;28;20218;-51
2022/06/28 03:38:42;;;;;;;1.20;1.10;;;;;24.50;101077.00;;;;2070238;28;20591;-50
2022/06/28 03:39:42;;;;;;;1.80;1.20;;;;;24.60;101080.00;;;;2077779;28;20748;-56
2022/06/28 03:40:42;;;;;;;1.70;1.10;;;;;24.60;101081.00;;;;2078961;28;20260;-53
2022/06/28 03:41:43;;;;;;;1.27;1.00;;;;;24.50;101080.00;;;;2076257;28;20220;-52
2022/06/28 03:42:43;;;;;;;1.87;1.20;;;;;24.60;101085.00;;;;2070231;28;20214;-51
2022/06/28 03:43:43;;;;;;;1.30;1.00;;;;;24.50;101079.00;;;;2070819;28;20281;-50
2022/06/28 03:44:44;;;;;;;1.30;1.10;;;;;24.50;101085.00;;;;2070829;28;20206;-50
2022/06/28 03:45:44;;;;;;;1.50;1.10;;;;;24.50;101080.00;;;;2070486;28;20268;-51
2022/06/28 03:46:44;;;;;;;1.33;1.10;;;;;24.50;101088.00;;;;2070480;28;20290;-51
2022/06/28 03:47:45;;;;;;;1.40;1.20;;;;;24.50;101080.00;;;;2069931;28;20826;-51
2022/06/28 03:48:45;;;;;;;1.90;1.07;;;;;24.50;101102.00;;;;2070847;28;20581;-51
2022/06/28 03:49:47;;;;;;;1.37;1.03;;;;;24.50;101091.00;;;;2075586;28;20221;-50
2022/06/28 03:50:47;;;;;;;1.50;1.05;;;;;24.50;101089.00;;;;2078153;28;20259;-50
2022/06/28 03:51:48;;;;;;;2.07;1.50;;;;;24.50;101088.00;;;;2078746;28;20271;-51
2022/06/28 03:52:48;;;;;;;1.77;1.40;;;;;24.60;101088.00;;;;2078966;28;20513;-50
2022/06/28 03:53:48;;;;;;;1.47;0.90;;;;;24.50;101087.00;;;;2079155;28;20617;-50
2022/06/28 03:54:49;;;;;;;2.90;1.17;;;;;24.50;101090.00;;;;2078798;28;20212;-50
2022/06/28 03:55:49;;;;;;;1.30;1.00;;;;;24.50;101087.00;;;;2078804;28;20209;-51
2022/06/28 03:56:49;;;;;;;1.87;1.03;;;;;24.50;101087.00;;;;2078905;28;20236;-51
2022/06/28 03:57:50;;;;;;;1.83;0.93;;;;;24.50;101091.00;;;;2076844;28;20209;-50
2022/06/28 03:58:50;;;;;;;3.10;1.10;;;;;24.40;101094.00;;;;2078987;28;20308;-51
2022/06/28 03:59:50;;;;;;;1.43;1.00;;;;;24.50;101093.00;;;;2075048;28;20214;-50
2022/06/28 04:00:51;;;;;;;2.33;1.23;;;;;24.50;101090.00;;;;2070402;28;20337;-52
2022/06/28 04:01:51;;;;;;;1.23;1.10;;;;;24.50;101084.00;;;;2070524;28;20768;-50
2022/06/28 04:02:51;;;;;;;1.37;1.10;;;;;24.50;101089.00;;;;2070349;28;21049;-50
2022/06/28 04:03:52;;;;;;;1.20;0.97;;;;;24.50;101088.00;;;;2077075;28;20687;-50
2022/06/28 04:04:52;;;;;;;1.50;1.00;;;;;24.50;101109.00;;;;2078847;28;20860;-51
2022/06/28 04:05:52;;;;;;;1.90;1.00;;;;;24.50;101102.00;;;;2078774;28;20556;-50
2022/06/28 04:06:53;;;;;;;2.53;1.23;;;;;24.50;101089.00;;;;2079068;28;20674;-50
2022/06/28 04:07:53;;;;;;;1.50;1.17;;;;;24.50;101093.00;;;;2073832;28;20875;-50
2022/06/28 04:08:53;;;;;;;1.73;1.27;;;;;24.50;101099.00;;;;2078839;28;20280;-50
2022/06/28 04:09:54;;;;;;;1.90;1.20;;;;;24.50;101092.00;;;;2078755;28;20230;-50
2022/06/28 04:11:13;;;;;;;1.50;1.30;;;;;24.50;101105.00;;;;2079088;28;20213;-50
2022/06/28 04:12:14;;;;;;;1.42;1.05;;;;;24.50;101100.00;;;;2078939;28;20220;-50
2022/06/28 04:13:15;;;;;;;1.48;1.38;;;;;24.50;101107.00;;;;2078966;28;20220;-50
2022/06/28 04:14:15;;;;;;;1.43;1.27;;;;;24.50;101100.00;;;;2071575;28;20212;-50
2022/06/28 04:15:15;;;;;;;2.70;1.30;;;;;24.50;101106.00;;;;2066501;28;20202;-50
2022/06/28 04:16:16;;;;;;;2.03;0.90;;;;;24.50;101110.00;;;;2071113;28;20218;-50
2022/06/28 04:17:16;;;;;;;1.43;1.20;;;;;24.50;101104.00;;;;2070149;28;20693;-50
2022/06/28 04:18:17;;;;;;;1.40;1.30;;;;;24.50;101100.00;;;;2070672;28;20238;-51
2022/06/28 04:19:17;;;;;;;1.27;1.00;;;;;24.50;101106.00;;;;2071113;28;20214;-51
2022/06/28 04:20:17;;;;;;;1.93;1.17;;;;;24.50;101103.00;;;;2070989;28;20321;-50
2022/06/28 04:21:18;;;;;;;1.90;1.37;;;;;24.50;101105.00;;;;2071006;28;20238;-50
2022/06/28 04:22:18;;;;;;;1.73;1.10;;;;;24.50;101103.00;;;;2070969;28;20206;-51
2022/06/28 04:23:19;;;;;;;2.20;1.30;;;;;24.50;101114.00;;;;2070766;28;20269;-51
2022/06/28 04:24:19;;;;;;;1.80;1.50;;;;;24.40;101112.00;;;;2069908;28;22078;-55
2022/06/28 04:25:19;;;;;;;5.00;1.53;;;;;24.50;101103.00;;;;2076305;28;20325;-52
2022/06/28 04:26:20;;;;;;;1.67;1.10;;;;;24.50;101104.00;;;;2078561;28;20235;-50
2022/06/28 04:27:20;;;;;;;1.80;1.30;;;;;24.50;101111.00;;;;2077102;28;20221;-51
2022/06/28 04:28:20;;;;;;;1.97;1.27;;;;;24.50;101115.00;;;;2078261;28;20771;-50
2022/06/28 04:29:21;;;;;;;1.83;1.50;;;;;24.50;101112.00;;;;2078516;28;20217;-50
2022/06/28 04:30:21;;;;;;;1.93;1.37;;;;;24.50;101110.00;;;;2078327;28;20317;-50
2022/06/28 04:31:22;;;;;;;1.87;1.30;;;;;24.50;101107.00;;;;2078563;28;20280;-50
2022/06/28 04:32:22;;;;;;;1.87;1.50;;;;;24.50;101108.00;;;;2071373;28;20221;-50
2022/06/28 04:33:22;;;;;;;3.80;1.73;;;;;24.50;101111.00;;;;2078522;28;20300;-50
2022/06/28 04:34:23;;;;;;;2.10;1.37;;;;;24.50;101111.00;;;;2078471;28;20225;-51
2022/06/28 04:35:23;;;;;;;2.20;1.30;;;;;24.50;101110.00;;;;2078630;28;20228;-50
2022/06/28 04:36:24;;;;;;;2.40;1.37;;;;;24.50;101110.00;;;;2077743;28;20214;-51
2022/06/28 04:37:24;;;;;;;2.00;1.40;;;;;24.50;101121.00;;;;2069527;28;20247;-50
2022/06/28 04:38:24;;;;;;;1.90;1.70;;;;;24.50;101108.00;;;;2070108;28;20214;-50
2022/06/28 04:39:25;;;;;;;2.87;1.60;;;;;24.50;101109.00;;;;2070577;28;20210;-50
2022/06/28 04:40:25;;;;;;;1.83;1.47;;;;;24.50;101109.00;;;;2070639;28;20298;-50
2022/06/28 04:41:25;;;;;;;1.90;1.70;;;;;24.50;101106.00;;;;2073891;28;20230;-51
2022/06/28 04:42:26;;;;;;;2.30;1.73;;;;;24.50;101102.00;;;;2072497;28;20214;-51
2022/06/28 04:43:26;;;;;;;3.90;1.83;;;;;24.50;101108.00;;;;2071974;28;20340;-51
2022/06/28 04:44:26;;;;;;;1.50;1.40;;;;;24.50;101107.00;;;;2070358;28;20584;-50
2022/06/28 04:45:27;;;;;;;2.63;1.73;;;;;24.50;101106.00;;;;2071200;28;20259;-50
2022/06/28 04:46:28;;;;;;;3.37;1.97;;;;;24.50;101104.00;;;;2076538;28;20229;-50
2022/06/28 04:47:28;;;;;;;2.20;2.00;;;;;24.50;101117.00;;;;2073260;28;20214;-52
2022/06/28 04:48:29;;;;;;;2.13;1.80;;;;;24.50;101110.00;;;;2069414;28;20741;-50
2022/06/28 04:49:29;;;;;;;2.13;1.93;;;;;24.50;101105.00;;;;2076722;28;20220;-51
2022/06/28 04:50:29;;;;;;;2.10;1.83;;;;;24.50;101105.00;;;;2070060;28;20614;-50
2022/06/28 04:51:30;;;;;;;2.20;2.00;;;;;24.50;101102.00;;;;2076687;28;20412;-51
2022/06/28 04:52:31;;;;;;;3.00;2.20;;;;;24.50;101107.00;;;;2078069;28;20221;-51
2022/06/28 04:53:31;;;;;;;2.20;1.70;;;;;24.50;101107.00;;;;2078369;28;20214;-50
2022/06/28 04:54:31;;;;;;;4.37;1.93;;;;;24.50;101112.00;;;;2078354;28;20209;-52
2022/06/28 04:55:32;;;;;;;3.23;2.03;;;;;24.50;101102.00;;;;2078547;28;20249;-50
2022/06/28 04:56:32;;;;;;;2.10;1.80;;;;;24.50;101104.00;;;;2078602;28;20240;-50
2022/06/28 04:57:32;;;;;;;2.90;2.00;;;;;24.50;101104.00;;;;2078148;28;20214;-50
2022/06/28 04:58:33;;;;;;;2.93;2.10;;;;;24.50;101104.00;;;;2078960;28;20232;-49
2022/06/28 04:59:33;;;;;;;2.10;1.77;;;;;24.50;101095.00;;;;2072243;28;20628;-50
2022/06/28 05:00:34;;;;;;;3.20;2.13;;;;;24.50;101113.00;;;;2069531;28;20206;-50
2022/06/28 05:01:34;;;;;;;2.70;1.67;;;;;24.60;101102.00;;;;2068292;28;20694;-49
2022/06/28 05:02:36;;;;;;;3.33;2.10;;;;;24.50;101110.00;;;;2069783;28;20240;-50
2022/06/28 05:03:38;;;;;;;2.90;2.22;;;;;24.50;101107.00;;;;2071794;28;20301;-50
2022/06/28 05:04:38;;;;;;;3.08;2.30;;;;;24.50;101110.00;;;;2074303;28;20312;-50
2022/06/28 05:05:38;;;;;;;2.90;2.30;;;;;24.50;101106.00;;;;2078477;28;20417;-50
2022/06/28 05:06:39;;;;;;;3.40;2.17;;;;;24.50;101107.00;;;;2077710;28;20263;-50
2022/06/28 05:07:39;;;;;;;2.43;2.10;;;;;24.50;101109.00;;;;2073824;28;20225;-49